TAP22 LXGB-LPMA
Flight info
| Callsign | TAP22 |
|---|---|
| Flight time | 1h 38m |
| Altitude | 40000 |
| Route | LINTO UN10 TNR UN726 BAMBA N726 ORTOP DCT NARTA/N0466F410 DCT RULET DCT RAKUN |
| Aircraft | A339/H-SADE1E2E3GHIJ3J5M1P2RWXY/LB2D1 |
Departure
| Time | 2026-05-05 22:35 |
|---|---|
| Airport | Gibraltar Airport (LXGB) |
Arrival
| Time | 2026-05-06 00:14 |
|---|---|
| Airport | Cristiano Ronaldo International Airport (LPMA) |
| Time | Latitude | Longitude | Altitude | Speed | Heading |
|---|---|---|---|---|---|
| 2026-05-05 22:04 | 36.15295 | -5.34675 | 24 ft | 0 kts | 357° |
| 2026-05-05 22:26 | 36.15291 | -5.34675 | 24 ft | 1 kts | 354° |
| 2026-05-05 22:27 | 36.15283 | -5.34675 | 30 ft | 1 kts | 347° |
| 2026-05-05 22:27 | 36.15276 | -5.34672 | 30 ft | 1 kts | 347° |
| 2026-05-05 22:27 | 36.15268 | -5.34669 | 26 ft | 1 kts | 1° |
| 2026-05-05 22:27 | 36.15259 | -5.34668 | 28 ft | 1 kts | 20° |
| 2026-05-05 22:28 | 36.15250 | -5.34670 | 30 ft | 1 kts | 41° |
| 2026-05-05 22:28 | 36.15243 | -5.34675 | 30 ft | 1 kts | 64° |
| 2026-05-05 22:28 | 36.15238 | -5.34684 | 30 ft | 0 kts | 86° |
| 2026-05-05 22:30 | 36.15238 | -5.34678 | 30 ft | 2 kts | 86° |
| 2026-05-05 22:30 | 36.15239 | -5.34653 | 30 ft | 4 kts | 90° |
| 2026-05-05 22:31 | 36.15239 | -5.34609 | 25 ft | 6 kts | 90° |
| 2026-05-05 22:31 | 36.15235 | -5.34544 | 25 ft | 9 kts | 95° |
| 2026-05-05 22:31 | 36.15231 | -5.34460 | 27 ft | 11 kts | 90° |
| 2026-05-05 22:31 | 36.15237 | -5.34354 | 24 ft | 13 kts | 86° |
| 2026-05-05 22:32 | 36.15243 | -5.34231 | 28 ft | 16 kts | 86° |
| 2026-05-05 22:32 | 36.15245 | -5.34149 | 24 ft | 1 kts | 92° |
| 2026-05-05 22:32 | 36.15233 | -5.34112 | 25 ft | 7 kts | 114° |
| 2026-05-05 22:32 | 36.15201 | -5.34079 | 24 ft | 0 kts | 152° |
| 2026-05-05 22:33 | 36.15200 | -5.34079 | 24 ft | 0 kts | 152° |
| 2026-05-05 22:33 | 36.15190 | -5.34073 | 25 ft | 4 kts | 156° |
| 2026-05-05 22:33 | 36.15185 | -5.34072 | 26 ft | 0 kts | 162° |
| 2026-05-05 22:33 | 36.15175 | -5.34070 | 24 ft | 0 kts | 166° |
| 2026-05-05 22:34 | 36.15167 | -5.34075 | 26 ft | 2 kts | 196° |
| 2026-05-05 22:34 | 36.15157 | -5.34092 | 26 ft | 2 kts | 233° |
| 2026-05-05 22:34 | 36.15154 | -5.34112 | 25 ft | 2 kts | 255° |
| 2026-05-05 22:34 | 36.15154 | -5.34118 | 24 ft | 0 kts | 262° |
| 2026-05-05 22:35 | 36.15136 | -5.34372 | 21 ft | 77 kts | 266° |
| 2026-05-05 22:35 | 36.15092 | -5.35391 | 27 ft | 155 kts | 262° |
| 2026-05-05 22:35 | 36.15011 | -5.36892 | 565 ft | 172 kts | 268° |
| 2026-05-05 22:35 | 36.14930 | -5.38341 | 1717 ft | 165 kts | 267° |
| 2026-05-05 22:36 | 36.14817 | -5.39788 | 2607 ft | 181 kts | 266° |
| 2026-05-05 22:36 | 36.14422 | -5.41353 | 3324 ft | 202 kts | 248° |
| 2026-05-05 22:36 | 36.13670 | -5.42914 | 4072 ft | 219 kts | 240° |
| 2026-05-05 22:36 | 36.12830 | -5.44571 | 4878 ft | 230 kts | 244° |
| 2026-05-05 22:37 | 36.12113 | -5.46362 | 5691 ft | 234 kts | 249° |
| 2026-05-05 22:37 | 36.11379 | -5.48174 | 6548 ft | 237 kts | 240° |
| 2026-05-05 22:37 | 36.10466 | -5.49880 | 7376 ft | 238 kts | 234° |
| 2026-05-05 22:37 | 36.09445 | -5.51511 | 8070 ft | 245 kts | 233° |
| 2026-05-05 22:38 | 36.08375 | -5.53200 | 8519 ft | 260 kts | 233° |
| 2026-05-05 22:38 | 36.07234 | -5.55071 | 8765 ft | 284 kts | 234° |
| 2026-05-05 22:38 | 36.06015 | -5.57117 | 9074 ft | 303 kts | 234° |
| 2026-05-05 22:38 | 36.04730 | -5.59192 | 9875 ft | 303 kts | 233° |
| 2026-05-05 22:39 | 36.03452 | -5.61238 | 10691 ft | 303 kts | 234° |
| 2026-05-05 22:39 | 36.02168 | -5.63413 | 10910 ft | 323 kts | 235° |
| 2026-05-05 22:39 | 36.00844 | -5.65708 | 11500 ft | 328 kts | 236° |
| 2026-05-05 22:39 | 35.99515 | -5.68004 | 12182 ft | 330 kts | 235° |
| 2026-05-05 22:40 | 35.98169 | -5.70314 | 12849 ft | 333 kts | 235° |
| 2026-05-05 22:40 | 35.96818 | -5.72618 | 13501 ft | 337 kts | 235° |
| 2026-05-05 22:40 | 35.95439 | -5.74962 | 14134 ft | 339 kts | 235° |
| 2026-05-05 22:40 | 35.94041 | -5.77332 | 14669 ft | 344 kts | 235° |
| 2026-05-05 22:41 | 35.92627 | -5.79727 | 15223 ft | 347 kts | 235° |
| 2026-05-05 22:41 | 35.91193 | -5.82156 | 15755 ft | 351 kts | 235° |
| 2026-05-05 22:41 | 35.89745 | -5.84607 | 16330 ft | 355 kts | 236° |
| 2026-05-05 22:41 | 35.88283 | -5.87081 | 16854 ft | 359 kts | 236° |
| 2026-05-05 22:42 | 35.86801 | -5.89585 | 17412 ft | 363 kts | 236° |
| 2026-05-05 22:42 | 35.85298 | -5.92128 | 17930 ft | 367 kts | 236° |
| 2026-05-05 22:42 | 35.84001 | -5.94850 | 18433 ft | 369 kts | 247° |
| 2026-05-05 22:42 | 35.83191 | -5.97799 | 18989 ft | 368 kts | 258° |
| 2026-05-05 22:43 | 35.82835 | -6.00912 | 19537 ft | 368 kts | 265° |
| 2026-05-05 22:43 | 35.82599 | -6.04063 | 20080 ft | 370 kts | 265° |
| 2026-05-05 22:43 | 35.82344 | -6.07233 | 20631 ft | 371 kts | 265° |
| 2026-05-05 22:43 | 35.82078 | -6.10397 | 21170 ft | 374 kts | 264° |
| 2026-05-05 22:44 | 35.81806 | -6.13593 | 21705 ft | 376 kts | 264° |
| 2026-05-05 22:44 | 35.81529 | -6.16810 | 22254 ft | 378 kts | 264° |
| 2026-05-05 22:44 | 35.81251 | -6.20042 | 22804 ft | 380 kts | 264° |
| 2026-05-05 22:44 | 35.80971 | -6.23284 | 23355 ft | 382 kts | 264° |
| 2026-05-05 22:45 | 35.80741 | -6.26559 | 23838 ft | 385 kts | 268° |
| 2026-05-05 22:45 | 35.80807 | -6.29859 | 24294 ft | 387 kts | 274° |
| 2026-05-05 22:45 | 35.81193 | -6.33161 | 24777 ft | 389 kts | 281° |
| 2026-05-05 22:45 | 35.81792 | -6.36413 | 25228 ft | 391 kts | 282° |
| 2026-05-05 22:46 | 35.82392 | -6.39708 | 25689 ft | 393 kts | 281° |
| 2026-05-05 22:46 | 35.82981 | -6.43013 | 26144 ft | 395 kts | 281° |
| 2026-05-05 22:46 | 35.83570 | -6.46329 | 26592 ft | 398 kts | 282° |
| 2026-05-05 22:46 | 35.84226 | -6.49597 | 27103 ft | 398 kts | 283° |
| 2026-05-05 22:47 | 35.84953 | -6.52952 | 27521 ft | 401 kts | 284° |
| 2026-05-05 22:47 | 35.85671 | -6.56236 | 27925 ft | 403 kts | 284° |
| 2026-05-05 22:47 | 35.86393 | -6.59583 | 28341 ft | 406 kts | 283° |
| 2026-05-05 22:47 | 35.87111 | -6.62957 | 28745 ft | 408 kts | 283° |
| 2026-05-05 22:48 | 35.87827 | -6.66352 | 29143 ft | 410 kts | 283° |
| 2026-05-05 22:48 | 35.88544 | -6.69772 | 29551 ft | 412 kts | 283° |
| 2026-05-05 22:48 | 35.89261 | -6.73203 | 29917 ft | 414 kts | 283° |
| 2026-05-05 22:48 | 35.89981 | -6.76651 | 30283 ft | 417 kts | 283° |
| 2026-05-05 22:49 | 35.90707 | -6.80130 | 30630 ft | 419 kts | 283° |
| 2026-05-05 22:49 | 35.91436 | -6.83633 | 30975 ft | 421 kts | 283° |
| 2026-05-05 22:49 | 35.92166 | -6.87147 | 31293 ft | 424 kts | 283° |
| 2026-05-05 22:49 | 35.92890 | -6.90632 | 31624 ft | 426 kts | 283° |
| 2026-05-05 22:50 | 35.93626 | -6.94185 | 31962 ft | 429 kts | 283° |
| 2026-05-05 22:50 | 35.94367 | -6.97766 | 32278 ft | 431 kts | 283° |
| 2026-05-05 22:50 | 35.95109 | -7.01357 | 32583 ft | 433 kts | 282° |
| 2026-05-05 22:50 | 35.95855 | -7.04973 | 32838 ft | 435 kts | 282° |
| 2026-05-05 22:51 | 35.96600 | -7.08592 | 33089 ft | 437 kts | 282° |
| 2026-05-05 22:51 | 35.97350 | -7.12236 | 33290 ft | 438 kts | 282° |
| 2026-05-05 22:51 | 35.98101 | -7.15896 | 33481 ft | 440 kts | 282° |
| 2026-05-05 22:51 | 35.98853 | -7.19566 | 33682 ft | 440 kts | 282° |
| 2026-05-05 22:52 | 35.99598 | -7.23210 | 33887 ft | 440 kts | 282° |
| 2026-05-05 22:52 | 36.00349 | -7.26886 | 34087 ft | 440 kts | 282° |
| 2026-05-05 22:52 | 36.01095 | -7.30545 | 34295 ft | 440 kts | 282° |
| 2026-05-05 22:52 | 36.01755 | -7.34246 | 34488 ft | 438 kts | 276° |
| 2026-05-05 22:53 | 36.01955 | -7.37936 | 34695 ft | 436 kts | 268° |
| 2026-05-05 22:53 | 36.01682 | -7.41655 | 34908 ft | 434 kts | 260° |
| 2026-05-05 22:53 | 36.00944 | -7.45293 | 35093 ft | 434 kts | 252° |
| 2026-05-05 22:53 | 36.00019 | -7.48812 | 35263 ft | 434 kts | 253° |
| 2026-05-05 22:54 | 35.99103 | -7.52374 | 35483 ft | 434 kts | 253° |
| 2026-05-05 22:54 | 35.98196 | -7.55942 | 35668 ft | 434 kts | 253° |
| 2026-05-05 22:54 | 35.97299 | -7.59491 | 35869 ft | 433 kts | 253° |
| 2026-05-05 22:54 | 35.96407 | -7.63024 | 36122 ft | 431 kts | 253° |
| 2026-05-05 22:55 | 35.95509 | -7.66572 | 36329 ft | 430 kts | 253° |
| 2026-05-05 22:55 | 35.94614 | -7.70101 | 36534 ft | 430 kts | 253° |
| 2026-05-05 22:55 | 35.93715 | -7.73638 | 36712 ft | 430 kts | 253° |
| 2026-05-05 22:55 | 35.92826 | -7.77132 | 36898 ft | 430 kts | 253° |
| 2026-05-05 22:56 | 35.91927 | -7.80661 | 37091 ft | 429 kts | 253° |
| 2026-05-05 22:56 | 35.91038 | -7.84147 | 37274 ft | 429 kts | 253° |
| 2026-05-05 22:56 | 35.90133 | -7.87684 | 37447 ft | 429 kts | 253° |
| 2026-05-05 22:56 | 35.89238 | -7.91181 | 37666 ft | 429 kts | 253° |
| 2026-05-05 22:57 | 35.88334 | -7.94701 | 37824 ft | 428 kts | 253° |
| 2026-05-05 22:57 | 35.87443 | -7.98163 | 38004 ft | 428 kts | 253° |
| 2026-05-05 22:57 | 35.86539 | -8.01676 | 38182 ft | 428 kts | 253° |
| 2026-05-05 22:57 | 35.85635 | -8.05179 | 38366 ft | 428 kts | 253° |
| 2026-05-05 22:58 | 35.84730 | -8.08684 | 38554 ft | 427 kts | 253° |
| 2026-05-05 22:58 | 35.83838 | -8.12133 | 38710 ft | 427 kts | 253° |
| 2026-05-05 22:58 | 35.82932 | -8.15634 | 38853 ft | 427 kts | 253° |
| 2026-05-05 22:58 | 35.82027 | -8.19124 | 38982 ft | 427 kts | 253° |
| 2026-05-05 22:59 | 35.81120 | -8.22617 | 39110 ft | 427 kts | 253° |
| 2026-05-05 22:59 | 35.80213 | -8.26107 | 39236 ft | 427 kts | 253° |
| 2026-05-05 22:59 | 35.79319 | -8.29544 | 39344 ft | 427 kts | 253° |
| 2026-05-05 22:59 | 35.78408 | -8.33042 | 39485 ft | 427 kts | 253° |
| 2026-05-05 23:00 | 35.76600 | -8.39960 | 39775 ft | 426 kts | 253° |
| 2026-05-05 23:00 | 35.74772 | -8.46942 | 39975 ft | 427 kts | 253° |
| 2026-05-05 23:01 | 35.72955 | -8.53864 | 40074 ft | 426 kts | 253° |
| 2026-05-05 23:01 | 35.71117 | -8.60842 | 40075 ft | 426 kts | 253° |
| 2026-05-05 23:02 | 35.69291 | -8.67759 | 40078 ft | 426 kts | 253° |
| 2026-05-05 23:02 | 35.67465 | -8.74659 | 40077 ft | 425 kts | 253° |
| 2026-05-05 23:03 | 35.65638 | -8.81543 | 40079 ft | 425 kts | 253° |
| 2026-05-05 23:03 | 35.63804 | -8.88438 | 40079 ft | 425 kts | 253° |
| 2026-05-05 23:04 | 35.61957 | -8.95364 | 40085 ft | 425 kts | 253° |
| 2026-05-05 23:04 | 35.60114 | -9.02256 | 40085 ft | 425 kts | 252° |
| 2026-05-05 23:05 | 35.58269 | -9.09137 | 40086 ft | 425 kts | 252° |
| 2026-05-05 23:05 | 35.56723 | -9.14888 | 40091 ft | 424 kts | 252° |
| 2026-05-05 23:06 | 35.54873 | -9.21757 | 40092 ft | 424 kts | 252° |
| 2026-05-05 23:06 | 35.53016 | -9.28631 | 40090 ft | 424 kts | 252° |
| 2026-05-05 23:07 | 35.51166 | -9.35463 | 40087 ft | 424 kts | 252° |
| 2026-05-05 23:07 | 35.49301 | -9.42333 | 40093 ft | 423 kts | 252° |
| 2026-05-05 23:08 | 35.47440 | -9.49173 | 40097 ft | 423 kts | 252° |
| 2026-05-05 23:08 | 35.45576 | -9.56005 | 40099 ft | 423 kts | 252° |
| 2026-05-05 23:09 | 35.43695 | -9.62881 | 40095 ft | 423 kts | 252° |
| 2026-05-05 23:09 | 35.41821 | -9.69715 | 40100 ft | 423 kts | 252° |
| 2026-05-05 23:10 | 35.39952 | -9.76511 | 40100 ft | 423 kts | 252° |
| 2026-05-05 23:10 | 35.38070 | -9.83341 | 40099 ft | 423 kts | 252° |
| 2026-05-05 23:11 | 35.36190 | -9.90145 | 40103 ft | 423 kts | 252° |
| 2026-05-05 23:11 | 35.34305 | -9.96950 | 40102 ft | 423 kts | 252° |
| 2026-05-05 23:12 | 35.32414 | -10.03758 | 40100 ft | 422 kts | 252° |
| 2026-05-05 23:12 | 35.30515 | -10.10582 | 40102 ft | 423 kts | 252° |
| 2026-05-05 23:13 | 35.28618 | -10.17380 | 40106 ft | 423 kts | 252° |
| 2026-05-05 23:13 | 35.26722 | -10.24160 | 40113 ft | 422 kts | 252° |
| 2026-05-05 23:14 | 35.24807 | -10.30986 | 40118 ft | 422 kts | 252° |
| 2026-05-05 23:14 | 35.22895 | -10.37786 | 40116 ft | 422 kts | 252° |
| 2026-05-05 23:15 | 35.20997 | -10.44521 | 40118 ft | 422 kts | 252° |
| 2026-05-05 23:15 | 35.19070 | -10.51342 | 40117 ft | 422 kts | 252° |
| 2026-05-05 23:16 | 35.17156 | -10.58103 | 40116 ft | 422 kts | 251° |
| 2026-05-05 23:16 | 35.15235 | -10.64872 | 40115 ft | 422 kts | 251° |
| 2026-05-05 23:17 | 35.13310 | -10.71635 | 40117 ft | 422 kts | 251° |
| 2026-05-05 23:17 | 35.11379 | -10.78403 | 40118 ft | 423 kts | 251° |
| 2026-05-05 23:18 | 35.09440 | -10.85185 | 40119 ft | 423 kts | 251° |
| 2026-05-05 23:18 | 35.07501 | -10.91950 | 40125 ft | 423 kts | 251° |
| 2026-05-05 23:19 | 35.05552 | -10.98734 | 40116 ft | 424 kts | 251° |
| 2026-05-05 23:19 | 35.03591 | -11.05544 | 40121 ft | 424 kts | 251° |
| 2026-05-05 23:20 | 35.01644 | -11.12284 | 40123 ft | 424 kts | 251° |
| 2026-05-05 23:20 | 34.99678 | -11.19076 | 40124 ft | 424 kts | 251° |
| 2026-05-05 23:21 | 34.97706 | -11.25875 | 40128 ft | 425 kts | 251° |
| 2026-05-05 23:21 | 34.95732 | -11.32660 | 40125 ft | 425 kts | 251° |
| 2026-05-05 23:22 | 34.93760 | -11.39426 | 40124 ft | 425 kts | 251° |
| 2026-05-05 23:22 | 34.91779 | -11.46205 | 40125 ft | 425 kts | 251° |
| 2026-05-05 23:23 | 34.89786 | -11.53010 | 40123 ft | 426 kts | 251° |
| 2026-05-05 23:23 | 34.87795 | -11.59789 | 40124 ft | 426 kts | 251° |
| 2026-05-05 23:24 | 34.85792 | -11.66595 | 40128 ft | 426 kts | 251° |
| 2026-05-05 23:24 | 34.83794 | -11.73367 | 40128 ft | 426 kts | 251° |
| 2026-05-05 23:25 | 34.81795 | -11.80128 | 40136 ft | 426 kts | 251° |
| 2026-05-05 23:25 | 34.79783 | -11.86915 | 40136 ft | 426 kts | 251° |
| 2026-05-05 23:26 | 34.77774 | -11.93677 | 40133 ft | 426 kts | 251° |
| 2026-05-05 23:26 | 34.75762 | -12.00434 | 40133 ft | 426 kts | 251° |
| 2026-05-05 23:27 | 34.73745 | -12.07188 | 40134 ft | 426 kts | 251° |
| 2026-05-05 23:27 | 34.71717 | -12.13968 | 40135 ft | 426 kts | 251° |
| 2026-05-05 23:28 | 34.69682 | -12.20752 | 40138 ft | 426 kts | 250° |
| 2026-05-05 23:28 | 34.67651 | -12.27510 | 40138 ft | 426 kts | 250° |
| 2026-05-05 23:29 | 34.65612 | -12.34276 | 40141 ft | 426 kts | 250° |
| 2026-05-05 23:29 | 34.63577 | -12.41014 | 40139 ft | 426 kts | 250° |
| 2026-05-05 23:30 | 34.61537 | -12.47755 | 40141 ft | 427 kts | 250° |
| 2026-05-05 23:30 | 34.59480 | -12.54532 | 40132 ft | 426 kts | 250° |
| 2026-05-05 23:31 | 34.57435 | -12.61258 | 40152 ft | 426 kts | 250° |
| 2026-05-05 23:31 | 34.55383 | -12.67991 | 40152 ft | 426 kts | 250° |
| 2026-05-05 23:32 | 34.53318 | -12.74748 | 40133 ft | 426 kts | 250° |
| 2026-05-05 23:32 | 34.51257 | -12.81478 | 40132 ft | 426 kts | 250° |
| 2026-05-05 23:33 | 34.49194 | -12.88201 | 40152 ft | 426 kts | 250° |
| 2026-05-05 23:33 | 34.47129 | -12.94916 | 40153 ft | 426 kts | 250° |
| 2026-05-05 23:34 | 34.45047 | -13.01669 | 40150 ft | 427 kts | 250° |
| 2026-05-05 23:34 | 34.42970 | -13.08390 | 40136 ft | 427 kts | 250° |
| 2026-05-05 23:35 | 34.40885 | -13.15120 | 40136 ft | 427 kts | 250° |
| 2026-05-05 23:35 | 34.38796 | -13.21853 | 40144 ft | 428 kts | 250° |
| 2026-05-05 23:36 | 34.36700 | -13.28589 | 40138 ft | 428 kts | 250° |
| 2026-05-05 23:36 | 34.34602 | -13.35315 | 40146 ft | 428 kts | 250° |
| 2026-05-05 23:37 | 34.32482 | -13.42100 | 40159 ft | 428 kts | 250° |
| 2026-05-05 23:37 | 34.30383 | -13.48801 | 40165 ft | 429 kts | 250° |
| 2026-05-05 23:38 | 34.28265 | -13.55548 | 40140 ft | 429 kts | 250° |
| 2026-05-05 23:38 | 34.26136 | -13.62313 | 40141 ft | 429 kts | 250° |
| 2026-05-05 23:39 | 34.24011 | -13.69052 | 40161 ft | 429 kts | 250° |
| 2026-05-05 23:39 | 34.21880 | -13.75795 | 40167 ft | 429 kts | 250° |
| 2026-05-05 23:40 | 34.19760 | -13.82488 | 40150 ft | 429 kts | 250° |
| 2026-05-05 23:40 | 34.17622 | -13.89223 | 40151 ft | 429 kts | 250° |
| 2026-05-05 23:41 | 34.15484 | -13.95941 | 40153 ft | 430 kts | 250° |
| 2026-05-05 23:41 | 34.13334 | -14.02683 | 40157 ft | 430 kts | 250° |
| 2026-05-05 23:42 | 34.11184 | -14.09411 | 40159 ft | 430 kts | 250° |
| 2026-05-05 23:42 | 34.09021 | -14.16164 | 40161 ft | 430 kts | 249° |
| 2026-05-05 23:43 | 34.06864 | -14.22882 | 40146 ft | 431 kts | 249° |
| 2026-05-05 23:43 | 34.04701 | -14.29608 | 40151 ft | 431 kts | 249° |
| 2026-05-05 23:44 | 34.02522 | -14.36364 | 40150 ft | 431 kts | 249° |
| 2026-05-05 23:44 | 34.00359 | -14.43056 | 40152 ft | 422 kts | 249° |
| 2026-05-05 23:45 | 33.98235 | -14.49614 | 40158 ft | 419 kts | 249° |
| 2026-05-05 23:45 | 33.96107 | -14.56173 | 40158 ft | 421 kts | 249° |
| 2026-05-05 23:46 | 33.93967 | -14.62753 | 40157 ft | 424 kts | 249° |
| 2026-05-05 23:46 | 33.91825 | -14.69324 | 40155 ft | 423 kts | 249° |
| 2026-05-05 23:47 | 33.89665 | -14.75936 | 40153 ft | 422 kts | 249° |
| 2026-05-05 23:47 | 33.87516 | -14.82500 | 40157 ft | 422 kts | 249° |
| 2026-05-05 23:48 | 33.85365 | -14.89058 | 40151 ft | 422 kts | 249° |
| 2026-05-05 23:48 | 33.83214 | -14.95599 | 40128 ft | 422 kts | 250° |
| 2026-05-05 23:49 | 33.81053 | -15.02158 | 40143 ft | 422 kts | 250° |
| 2026-05-05 23:49 | 33.78893 | -15.08712 | 40104 ft | 423 kts | 249° |
| 2026-05-05 23:50 | 33.76689 | -15.15370 | 39955 ft | 430 kts | 249° |
| 2026-05-05 23:50 | 33.75593 | -15.18677 | 39558 ft | 430 kts | 249° |
| 2026-05-05 23:50 | 33.74471 | -15.22057 | 38845 ft | 433 kts | 249° |
| 2026-05-05 23:51 | 33.73364 | -15.25391 | 37741 ft | 437 kts | 249° |
| 2026-05-05 23:51 | 33.72228 | -15.28807 | 36604 ft | 438 kts | 249° |
| 2026-05-05 23:51 | 33.71105 | -15.32182 | 35539 ft | 435 kts | 249° |
| 2026-05-05 23:51 | 33.69984 | -15.35547 | 34341 ft | 428 kts | 249° |
| 2026-05-05 23:52 | 33.68880 | -15.38855 | 32820 ft | 431 kts | 248° |
| 2026-05-05 23:52 | 33.67747 | -15.42251 | 31263 ft | 438 kts | 248° |
| 2026-05-05 23:52 | 33.66632 | -15.45592 | 30196 ft | 437 kts | 248° |
| 2026-05-05 23:52 | 33.65499 | -15.48981 | 29242 ft | 432 kts | 248° |
| 2026-05-05 23:53 | 33.64399 | -15.52269 | 28635 ft | 423 kts | 248° |
| 2026-05-05 23:53 | 33.63312 | -15.55514 | 28307 ft | 410 kts | 248° |
| 2026-05-05 23:53 | 33.62254 | -15.58670 | 28037 ft | 408 kts | 248° |
| 2026-05-05 23:53 | 33.61197 | -15.61826 | 27712 ft | 412 kts | 248° |
| 2026-05-05 23:54 | 33.60118 | -15.65038 | 27093 ft | 413 kts | 249° |
| 2026-05-05 23:54 | 33.59049 | -15.68219 | 26479 ft | 410 kts | 249° |
| 2026-05-05 23:54 | 33.58343 | -15.70317 | 26076 ft | 407 kts | 249° |
| 2026-05-05 23:54 | 33.57283 | -15.73463 | 25460 ft | 400 kts | 248° |
| 2026-05-05 23:55 | 33.56075 | -15.76419 | 24885 ft | 395 kts | 242° |
| 2026-05-05 23:55 | 33.54016 | -15.79984 | 24099 ft | 390 kts | 232° |
| 2026-05-05 23:55 | 33.52793 | -15.81600 | 23662 ft | 388 kts | 227° |
| 2026-05-05 23:55 | 33.50227 | -15.84533 | 22888 ft | 379 kts | 226° |
| 2026-05-05 23:56 | 33.48954 | -15.86011 | 22490 ft | 374 kts | 227° |
| 2026-05-05 23:56 | 33.47117 | -15.88163 | 21946 ft | 367 kts | 227° |
| 2026-05-05 23:56 | 33.45313 | -15.90285 | 21387 ft | 375 kts | 227° |
| 2026-05-05 23:56 | 33.43374 | -15.92570 | 20769 ft | 402 kts | 227° |
| 2026-05-05 23:57 | 33.41353 | -15.94941 | 20175 ft | 410 kts | 226° |
| 2026-05-05 23:57 | 33.39313 | -15.97324 | 19545 ft | 409 kts | 226° |
| 2026-05-05 23:57 | 33.37279 | -15.99692 | 18891 ft | 405 kts | 226° |
| 2026-05-05 23:57 | 33.35276 | -16.02022 | 18196 ft | 397 kts | 226° |
| 2026-05-05 23:58 | 33.33327 | -16.04295 | 17620 ft | 386 kts | 227° |
| 2026-05-05 23:58 | 33.31446 | -16.06483 | 17041 ft | 375 kts | 226° |
| 2026-05-05 23:58 | 33.29577 | -16.08661 | 16448 ft | 366 kts | 226° |
| 2026-05-05 23:58 | 33.27775 | -16.10764 | 15883 ft | 358 kts | 227° |
| 2026-05-05 23:59 | 33.26030 | -16.12796 | 15356 ft | 351 kts | 227° |
| 2026-05-05 23:59 | 33.24296 | -16.14819 | 14789 ft | 345 kts | 226° |
| 2026-05-05 23:59 | 33.22557 | -16.16846 | 14252 ft | 361 kts | 226° |
| 2026-05-05 23:59 | 33.20727 | -16.18979 | 13925 ft | 371 kts | 226° |
| 2026-05-06 00:00 | 33.18866 | -16.21137 | 13322 ft | 372 kts | 225° |
| 2026-05-06 00:00 | 33.17002 | -16.23299 | 12423 ft | 375 kts | 225° |
| 2026-05-06 00:00 | 33.15152 | -16.25439 | 11883 ft | 363 kts | 225° |
| 2026-05-06 00:00 | 33.13369 | -16.27497 | 11331 ft | 351 kts | 225° |
| 2026-05-06 00:01 | 33.11647 | -16.29495 | 10803 ft | 340 kts | 225° |
| 2026-05-06 00:01 | 33.09978 | -16.31429 | 10510 ft | 323 kts | 225° |
| 2026-05-06 00:01 | 33.08415 | -16.33232 | 10328 ft | 303 kts | 225° |
| 2026-05-06 00:01 | 33.06958 | -16.34914 | 10015 ft | 289 kts | 225° |
| 2026-05-06 00:02 | 33.05537 | -16.36561 | 9668 ft | 278 kts | 224° |
| 2026-05-06 00:02 | 33.04139 | -16.38177 | 9536 ft | 286 kts | 224° |
| 2026-05-06 00:02 | 33.02713 | -16.39823 | 9402 ft | 284 kts | 224° |
| 2026-05-06 00:02 | 33.01298 | -16.41457 | 9265 ft | 281 kts | 224° |
| 2026-05-06 00:03 | 32.99899 | -16.43071 | 8910 ft | 279 kts | 224° |
| 2026-05-06 00:03 | 32.98523 | -16.44657 | 8550 ft | 271 kts | 224° |
| 2026-05-06 00:03 | 32.97196 | -16.46186 | 8198 ft | 260 kts | 224° |
| 2026-05-06 00:03 | 32.95891 | -16.47689 | 7745 ft | 275 kts | 224° |
| 2026-05-06 00:04 | 32.94483 | -16.49312 | 7245 ft | 278 kts | 224° |
| 2026-05-06 00:04 | 32.93120 | -16.50880 | 6768 ft | 273 kts | 224° |
| 2026-05-06 00:04 | 32.91718 | -16.52466 | 6265 ft | 276 kts | 222° |
| 2026-05-06 00:04 | 32.90318 | -16.53966 | 5914 ft | 274 kts | 221° |
| 2026-05-06 00:05 | 32.87433 | -16.57001 | 4565 ft | 278 kts | 221° |
| 2026-05-06 00:05 | 32.85989 | -16.58530 | 3932 ft | 276 kts | 220° |
| 2026-05-06 00:05 | 32.84564 | -16.60042 | 3299 ft | 273 kts | 221° |
| 2026-05-06 00:06 | 32.83151 | -16.61543 | 2668 ft | 272 kts | 221° |
| 2026-05-06 00:06 | 32.81681 | -16.62925 | 2178 ft | 264 kts | 210° |
| 2026-05-06 00:06 | 32.80079 | -16.63827 | 2022 ft | 249 kts | 196° |
| 2026-05-06 00:06 | 32.78387 | -16.64463 | 2000 ft | 253 kts | 194° |
| 2026-05-06 00:07 | 32.76739 | -16.65103 | 2000 ft | 254 kts | 196° |
| 2026-05-06 00:07 | 32.75051 | -16.65778 | 1995 ft | 253 kts | 196° |
| 2026-05-06 00:07 | 32.73436 | -16.66438 | 2003 ft | 251 kts | 196° |
| 2026-05-06 00:07 | 32.71820 | -16.67101 | 1994 ft | 235 kts | 197° |
| 2026-05-06 00:08 | 32.70332 | -16.67716 | 1994 ft | 217 kts | 196° |
| 2026-05-06 00:08 | 32.68922 | -16.68289 | 2004 ft | 217 kts | 195° |
| 2026-05-06 00:08 | 32.67537 | -16.68847 | 1993 ft | 198 kts | 195° |
| 2026-05-06 00:08 | 32.66315 | -16.69344 | 1997 ft | 174 kts | 196° |
| 2026-05-06 00:09 | 32.65214 | -16.69790 | 1832 ft | 163 kts | 195° |
| 2026-05-06 00:09 | 32.64125 | -16.70232 | 1342 ft | 168 kts | 194° |
| 2026-05-06 00:09 | 32.63076 | -16.70807 | 1057 ft | 165 kts | 210° |
| 2026-05-06 00:09 | 32.62204 | -16.71638 | 965 ft | 152 kts | 227° |
| 2026-05-06 00:10 | 32.61532 | -16.72679 | 1100 ft | 169 kts | 239° |
| 2026-05-06 00:10 | 32.61055 | -16.73908 | 1001 ft | 152 kts | 257° |
| 2026-05-06 00:10 | 32.60843 | -16.75145 | 992 ft | 152 kts | 270° |
| 2026-05-06 00:10 | 32.60853 | -16.76407 | 1005 ft | 154 kts | 283° |
| 2026-05-06 00:11 | 32.61086 | -16.77640 | 1004 ft | 151 kts | 296° |
| 2026-05-06 00:11 | 32.61552 | -16.78734 | 980 ft | 146 kts | 313° |
| 2026-05-06 00:11 | 32.62236 | -16.79576 | 1005 ft | 141 kts | 330° |
| 2026-05-06 00:11 | 32.63068 | -16.80124 | 985 ft | 132 kts | 347° |
| 2026-05-06 00:12 | 32.63959 | -16.80352 | 986 ft | 132 kts | 1° |
| 2026-05-06 00:12 | 32.64877 | -16.80332 | 883 ft | 134 kts | 9° |
| 2026-05-06 00:12 | 32.65775 | -16.80277 | 748 ft | 121 kts | 6° |
| 2026-05-06 00:12 | 32.66608 | -16.80127 | 698 ft | 127 kts | 14° |
| 2026-05-06 00:13 | 32.67429 | -16.79769 | 607 ft | 124 kts | 27° |
| 2026-05-06 00:13 | 32.68156 | -16.79226 | 376 ft | 124 kts | 34° |
| 2026-05-06 00:13 | 32.68842 | -16.78553 | 230 ft | 131 kts | 42° |
| 2026-05-06 00:13 | 32.69469 | -16.77805 | 184 ft | 112 kts | 45° |
| 2026-05-06 00:14 | 32.69841 | -16.77377 | 182 ft | 59 kts | 41° |
| 2026-05-06 00:14 | 32.69957 | -16.77226 | 182 ft | 0 kts | 82° |
| 2026-05-06 00:14 | 32.69933 | -16.77170 | 182 ft | 8 kts | 142° |
| 2026-05-06 00:14 | 32.69892 | -16.77169 | 182 ft | 5 kts | 182° |
| 2026-05-06 00:15 | 32.69854 | -16.77179 | 182 ft | 9 kts | 197° |
| 2026-05-06 00:15 | 32.69804 | -16.77220 | 182 ft | 8 kts | 224° |
| 2026-05-06 00:15 | 32.69767 | -16.77264 | 182 ft | 7 kts | 225° |
| 2026-05-06 00:15 | 32.69738 | -16.77301 | 182 ft | 6 kts | 227° |
| 2026-05-06 00:16 | 32.69714 | -16.77331 | 182 ft | 4 kts | 227° |
| 2026-05-06 00:16 | 32.69696 | -16.77354 | 182 ft | 4 kts | 227° |
| 2026-05-06 00:16 | 32.69667 | -16.77371 | 182 ft | 4 kts | 194° |
| 2026-05-06 00:16 | 32.69653 | -16.77363 | 182 ft | 1 kts | 156° |
| 2026-05-06 00:17 | 32.69631 | -16.77350 | 182 ft | 4 kts | 149° |
| 2026-05-06 00:17 | 32.69615 | -16.77332 | 182 ft | 0 kts | 138° |
| 2026-05-06 00:51 | 32.69615 | -16.77333 | 218 ft | 0 kts | 138° |